aviador You're here:

KCBM Decoded Metar

COLOMBUS in MS, USA
Report Time2018-01-18 08:56:00
UTC Time2018-01-18 10:05:28
Flight Rules Old
WindCalm
Visibility9999 m
Phenomena:N/A
Clouds:N/A
Expected CloudBase > 400 ft AGL from Temp-Dew spread
CeilingNone
Temp-11°C (ISA -26)
Dew Point-12°C (92% RH)
AAT-14.2°C
QNH1036 hPa
Density Alt-3,737 ft
Elevation220 ft
Report Wrong Elevation
Raw Report
KCBM 180856Z 00000KT 10SM CLR M11/M12 A3059 RMK AO2A VIS 2 1/4
RWY13C SLPNO ALSTG ESTMD 58007 TSNO $=

Extra information for KCBM:More info

Metar Taf Metar & Taf Last 4 Metars F.Rules Stats Wind Profile Meteogram Temp Stats Airport Information Weather charts Add Link Nearby VenuesMetar ALERT Operation Metar Decoded Social comments

AIRNAV info for KCBM